Toyofukumaru — JD2177 — position and weather

sailwx.info

Track history (hours):
 
Tides and Currents Weather Stations Pressure Air Temp Water Temp Dewpoint Dewpoint Depression Visibility Wind Speed Wind Dir Waves Ship Positions

Toyofukumaru

Last reported at 2015-Jul-01 22:33 UTC. Time now 2015-Jul-01 23:04 UTC.
Position N 35°24' E 139°39'.

Length 165 m; draft 6.2 m.

Type: Cargo ship. MMSI: 431200688.

Date/timePositionNaut miles runAvg speedWind from/ knotsBaromVisibWave heightAir tempDewpointWater temp
2015-Jul-01 22:33N 35°24' E 139°39'1110.7
2015-Jul-01 21:33N 35°15' E 139°47'1515.3
2015-Jul-01 20:33N 35°01' E 139°40'2218.9
2015-Jul-01 19:24N 34°48' E 139°18'1818.7
2015-Jul-01 18:26N 34°33' E 139°06'38 1.4
2015-Jun-30 15:06N 34°28' E 138°20'917.2
2015-Jun-30 14:33N 34°28' E 138°32'4815.7
2015-Jun-30 11:28N 34°53' E 139°22'1516.5
2015-Jun-30 10:33N 35°03' E 139°36'1414.5
2015-Jun-30 09:34N 35°15' E 139°46'1010.2
2015-Jun-30 08:33N 35°23' E 139°39'0 0.0
2015-Jun-30 07:32N 35°23' E 139°39'0 0.0
2015-Jun-30 06:32N 35°23' E 139°39'0 0.0
2015-Jun-30 05:32N 35°23' E 139°39'0 0.0
2015-Jun-30 04:20N 35°23' E 139°39'0 0.0
2015-Jun-30 03:32N 35°23' E 139°39'0 0.0
2015-Jun-30 02:32N 35°23' E 139°39'4 3.8
2015-Jun-30 01:34N 35°21' E 139°43'1312.9
2015-Jun-30 00:34N 35°09' E 139°46'1918.0
2015-Jun-29 23:31N 34°50' E 139°48'1919.5
2015-Jun-29 22:33N 34°56' E 140°10'2420.0
2015-Jun-29 21:21N 35°09' E 140°35'1719.9
2015-Jun-29 20:31N 35°22' E 140°47'2019.2
2015-Jun-29 19:30N 35°40' E 140°58'1919.3
2015-Jun-29 18:32N 35°58' E 141°01'2619.7
2015-Jun-29 17:14N 36°24' E 141°04'1519.5
2015-Jun-29 16:28N 36°39' E 141°06'36 1.5
2015-Jun-28 16:17N 36°03' E 141°03'2011.5
2015-Jun-28 14:33N 35°43' E 140°58'1817.1
2015-Jun-28 13:29N 35°26' E 140°48'1718.4
2015-Jun-28 12:33N 35°13' E 140°36'1918.6
2015-Jun-28 11:33N 35°00' E 140°19'1918.9
2015-Jun-28 10:33N 34°52' E 139°58'1515.5
2015-Jun-28 09:33N 35°00' E 139°43'1616.4
2015-Jun-28 08:33N 35°17' E 139°45'1413.8
2015-Jun-28 07:33N 35°30' E 139°47'2 1.6
2015-Jun-28 06:31N 35°30' E 139°45'0 0.0
2015-Jun-28 05:31N 35°30' E 139°45'0 0.0
2015-Jun-28 04:31N 35°30' E 139°45'0 0.1
2015-Jun-28 03:34N 35°30' E 139°45'9 8.7
2015-Jun-28 02:33N 35°23' E 139°39'0 0.0
2015-Jun-28 01:34N 35°23' E 139°39'0 0.0
2015-Jun-28 00:33N 35°23' E 139°39'0 0.0
2015-Jun-27 23:33N 35°23' E 139°39'0 0.0
2015-Jun-27 22:34N 35°23' E 139°39'4 4.1
2015-Jun-27 21:34N 35°21' E 139°43'1212.3
2015-Jun-27 20:33N 35°09' E 139°46'2019.6
2015-Jun-27 19:33N 34°55' E 139°28'54 1.9
2015-Jun-26 14:30N 34°29' E 138°31'5418.2
2015-Jun-26 11:32N 34°57' E 139°27'1919.2
2015-Jun-26 10:33N 35°09' E 139°44'1211.6
2015-Jun-26 09:33N 35°21' E 139°42'4 3.7
2015-Jun-26 08:32N 35°23' E 139°39'0 0.0
2015-Jun-26 07:32N 35°23' E 139°39'0 0.0
2015-Jun-26 06:32N 35°23' E 139°39'0 0.0
2015-Jun-26 05:32N 35°23' E 139°39'0 0.0
2015-Jun-26 04:32N 35°23' E 139°39'0 0.0
2015-Jun-26 03:32N 35°23' E 139°39'0 0.0
2015-Jun-26 02:32N 35°23' E 139°39'1 1.4
2015-Jun-26 01:34N 35°23' E 139°41'1212.5
2015-Jun-26 00:33N 35°12' E 139°47'1919.2
2015-Jun-25 23:33N 34°53' E 139°45'1919.0
2015-Jun-25 22:33N 34°54' E 140°08'2919.9
2015-Jun-25 21:06N 35°12' E 140°36'1119.1
2015-Jun-25 20:32N 35°22' E 140°42'2019.7
2015-Jun-25 19:32N 35°39' E 140°54'2420.3
2015-Jun-25 18:20N 36°02' E 141°03'4020.6
2015-Jun-25 16:25N 36°41' E 141°04'1921.2
2015-Jun-25 15:31N 37°01' E 141°07'16 0.8
2015-Jun-24 18:19N 36°44' E 141°07'3620.5
2015-Jun-24 16:33N 36°08' E 141°03'2120.8
2015-Jun-24 15:33N 35°47' E 140°59'2120.6
2015-Jun-24 14:33N 35°28' E 140°50'2121.5
2015-Jun-24 13:33N 35°10' E 140°37'2020.4
2015-Jun-24 12:33N 34°58' E 140°16'2320.1
2015-Jun-24 11:26N 34°49' E 139°51'1517.2
2015-Jun-24 10:33N 35°03' E 139°43'1514.9
2015-Jun-24 09:33N 35°17' E 139°45'1313.2
2015-Jun-24 08:33N 35°30' E 139°47'1 1.0
2015-Jun-24 07:33N 35°30' E 139°45'0 0.0
2015-Jun-24 06:33N 35°30' E 139°45'0 0.0
2015-Jun-24 05:33N 35°30' E 139°45'0 0.0
2015-Jun-24 04:33N 35°30' E 139°45'3 3.3
2015-Jun-24 03:34N 35°29' E 139°42'6 5.8
2015-Jun-24 02:33N 35°23' E 139°39'0 0.0
2015-Jun-24 01:28N 35°23' E 139°39'0 0.0
2015-Jun-24 00:31N 35°23' E 139°39'0 0.0
2015-Jun-23 23:31N 35°23' E 139°39'0 0.0
2015-Jun-23 22:31N 35°23' E 139°39'0 0.1
2015-Jun-23 21:33N 35°23' E 139°39'10 9.9
2015-Jun-23 20:33N 35°16' E 139°47'1615.8
2015-Jun-23 19:33N 35°01' E 139°39'919.1
2015-Jun-23 19:05N 34°55' E 139°31'65 2.4
2015-Jun-22 16:12N 34°27' E 138°20'5217.9
2015-Jun-22 13:19N 34°48' E 139°17'1419.1
2015-Jun-22 12:33N 34°58' E 139°30'1818.2
2015-Jun-22 11:33N 35°11' E 139°46'1212.0
2015-Jun-22 10:33N 35°22' E 139°41'2 2.2
2015-Jun-22 09:32N 35°23' E 139°39'0 0.0
2015-Jun-22 08:32N 35°23' E 139°39'0 0.0
2015-Jun-22 07:32N 35°23' E 139°39'0 0.0
2015-Jun-22 06:32N 35°23' E 139°39'0 0.0
2015-Jun-22 05:32N 35°23' E 139°39'0 0.0
2015-Jun-22 04:32N 35°23' E 139°39'0 0.0
2015-Jun-22 03:32N 35°23' E 139°39'0 0.0
2015-Jun-22 02:32N 35°23' E 139°39'0 0.0
2015-Jun-22 01:32N 35°23' E 139°39'6 5.7
2015-Jun-22 00:33N 35°19' E 139°43'1212.1
2015-Jun-21 23:33N 35°07' E 139°45'  
Track history (hours):
 
Tides and Currents Weather Stations Pressure Air Temp Water Temp Dewpoint Dewpoint Depression Visibility Wind Speed Wind Dir Waves Ship Positions

Toyofukumaru

Last reported at 2015-Jul-01 22:33 UTC. Time now 2015-Jul-01 23:04 UTC.
Position N 35°24' E 139°39'.

Length 165 m; draft 6.2 m.

Type: Cargo ship. MMSI: 431200688.

Date/timePositionNaut miles runAvg speedWind from/ knotsBaromVisibWave heightAir tempDewpointWater temp
2015-Jul-01 22:33N 35°24' E 139°39'1110.7
2015-Jul-01 21:33N 35°15' E 139°47'1515.3
2015-Jul-01 20:33N 35°01' E 139°40'2218.9
2015-Jul-01 19:24N 34°48' E 139°18'1818.7
2015-Jul-01 18:26N 34°33' E 139°06'38 1.4
2015-Jun-30 15:06N 34°28' E 138°20'917.2
2015-Jun-30 14:33N 34°28' E 138°32'4815.7
2015-Jun-30 11:28N 34°53' E 139°22'1516.5
2015-Jun-30 10:33N 35°03' E 139°36'1414.5
2015-Jun-30 09:34N 35°15' E 139°46'1010.2
2015-Jun-30 08:33N 35°23' E 139°39'0 0.0
2015-Jun-30 07:32N 35°23' E 139°39'0 0.0
2015-Jun-30 06:32N 35°23' E 139°39'0 0.0
2015-Jun-30 05:32N 35°23' E 139°39'0 0.0
2015-Jun-30 04:20N 35°23' E 139°39'0 0.0
2015-Jun-30 03:32N 35°23' E 139°39'0 0.0
2015-Jun-30 02:32N 35°23' E 139°39'4 3.8
2015-Jun-30 01:34N 35°21' E 139°43'1312.9
2015-Jun-30 00:34N 35°09' E 139°46'1918.0
2015-Jun-29 23:31N 34°50' E 139°48'1919.5
2015-Jun-29 22:33N 34°56' E 140°10'2420.0
2015-Jun-29 21:21N 35°09' E 140°35'1719.9
2015-Jun-29 20:31N 35°22' E 140°47'2019.2
2015-Jun-29 19:30N 35°40' E 140°58'1919.3
2015-Jun-29 18:32N 35°58' E 141°01'2619.7
2015-Jun-29 17:14N 36°24' E 141°04'1519.5
2015-Jun-29 16:28N 36°39' E 141°06'36 1.5
2015-Jun-28 16:17N 36°03' E 141°03'2011.5
2015-Jun-28 14:33N 35°43' E 140°58'1817.1
2015-Jun-28 13:29N 35°26' E 140°48'1718.4
2015-Jun-28 12:33N 35°13' E 140°36'1918.6
2015-Jun-28 11:33N 35°00' E 140°19'1918.9
2015-Jun-28 10:33N 34°52' E 139°58'1515.5
2015-Jun-28 09:33N 35°00' E 139°43'1616.4
2015-Jun-28 08:33N 35°17' E 139°45'1413.8
2015-Jun-28 07:33N 35°30' E 139°47'2 1.6
2015-Jun-28 06:31N 35°30' E 139°45'0 0.0
2015-Jun-28 05:31N 35°30' E 139°45'0 0.0
2015-Jun-28 04:31N 35°30' E 139°45'0 0.1
2015-Jun-28 03:34N 35°30' E 139°45'9 8.7
2015-Jun-28 02:33N 35°23' E 139°39'0 0.0
2015-Jun-28 01:34N 35°23' E 139°39'0 0.0
2015-Jun-28 00:33N 35°23' E 139°39'0 0.0
2015-Jun-27 23:33N 35°23' E 139°39'0 0.0
2015-Jun-27 22:34N 35°23' E 139°39'4 4.1
2015-Jun-27 21:34N 35°21' E 139°43'1212.3
2015-Jun-27 20:33N 35°09' E 139°46'2019.6
2015-Jun-27 19:33N 34°55' E 139°28'54 1.9
2015-Jun-26 14:30N 34°29' E 138°31'5418.2
2015-Jun-26 11:32N 34°57' E 139°27'1919.2
2015-Jun-26 10:33N 35°09' E 139°44'1211.6
2015-Jun-26 09:33N 35°21' E 139°42'4 3.7
2015-Jun-26 08:32N 35°23' E 139°39'0 0.0
2015-Jun-26 07:32N 35°23' E 139°39'0 0.0
2015-Jun-26 06:32N 35°23' E 139°39'0 0.0
2015-Jun-26 05:32N 35°23' E 139°39'0 0.0
2015-Jun-26 04:32N 35°23' E 139°39'0 0.0
2015-Jun-26 03:32N 35°23' E 139°39'0 0.0
2015-Jun-26 02:32N 35°23' E 139°39'1 1.4
2015-Jun-26 01:34N 35°23' E 139°41'1212.5
2015-Jun-26 00:33N 35°12' E 139°47'1919.2
2015-Jun-25 23:33N 34°53' E 139°45'1919.0
2015-Jun-25 22:33N 34°54' E 140°08'2919.9
2015-Jun-25 21:06N 35°12' E 140°36'1119.1
2015-Jun-25 20:32N 35°22' E 140°42'2019.7
2015-Jun-25 19:32N 35°39' E 140°54'2420.3
2015-Jun-25 18:20N 36°02' E 141°03'4020.6
2015-Jun-25 16:25N 36°41' E 141°04'1921.2
2015-Jun-25 15:31N 37°01' E 141°07'16 0.8
2015-Jun-24 18:19N 36°44' E 141°07'3620.5
2015-Jun-24 16:33N 36°08' E 141°03'2120.8
2015-Jun-24 15:33N 35°47' E 140°59'2120.6
2015-Jun-24 14:33N 35°28' E 140°50'2121.5
2015-Jun-24 13:33N 35°10' E 140°37'2020.4
2015-Jun-24 12:33N 34°58' E 140°16'2320.1
2015-Jun-24 11:26N 34°49' E 139°51'1517.2
2015-Jun-24 10:33N 35°03' E 139°43'1514.9
2015-Jun-24 09:33N 35°17' E 139°45'1313.2
2015-Jun-24 08:33N 35°30' E 139°47'1 1.0
2015-Jun-24 07:33N 35°30' E 139°45'0 0.0
2015-Jun-24 06:33N 35°30' E 139°45'0 0.0
2015-Jun-24 05:33N 35°30' E 139°45'0 0.0
2015-Jun-24 04:33N 35°30' E 139°45'3 3.3
2015-Jun-24 03:34N 35°29' E 139°42'6 5.8
2015-Jun-24 02:33N 35°23' E 139°39'0 0.0
2015-Jun-24 01:28N 35°23' E 139°39'0 0.0
2015-Jun-24 00:31N 35°23' E 139°39'0 0.0
2015-Jun-23 23:31N 35°23' E 139°39'0 0.0
2015-Jun-23 22:31N 35°23' E 139°39'0 0.1
2015-Jun-23 21:33N 35°23' E 139°39'10 9.9
2015-Jun-23 20:33N 35°16' E 139°47'1615.8
2015-Jun-23 19:33N 35°01' E 139°39'919.1
2015-Jun-23 19:05N 34°55' E 139°31'65 2.4
2015-Jun-22 16:12N 34°27' E 138°20'5217.9
2015-Jun-22 13:19N 34°48' E 139°17'1419.1
2015-Jun-22 12:33N 34°58' E 139°30'1818.2
2015-Jun-22 11:33N 35°11' E 139°46'1212.0
2015-Jun-22 10:33N 35°22' E 139°41'2 2.2
2015-Jun-22 09:32N 35°23' E 139°39'0 0.0
2015-Jun-22 08:32N 35°23' E 139°39'0 0.0
2015-Jun-22 07:32N 35°23' E 139°39'0 0.0
2015-Jun-22 06:32N 35°23' E 139°39'0 0.0
2015-Jun-22 05:32N 35°23' E 139°39'0 0.0
2015-Jun-22 04:32N 35°23' E 139°39'0 0.0
2015-Jun-22 03:32N 35°23' E 139°39'0 0.0
2015-Jun-22 02:32N 35°23' E 139°39'0 0.0
2015-Jun-22 01:32N 35°23' E 139°39'6 5.7
2015-Jun-22 00:33N 35°19' E 139°43'1212.1
2015-Jun-21 23:33N 35°07' E 139°45'  

Dump ship's entire track history